createdAt,value
2023-04-30T00:00:06.075Z,10.9
2023-04-30T00:01:06.346Z,10.9
2023-04-30T00:02:06.590Z,10
2023-04-30T00:03:06.179Z,10.8
2023-04-30T00:04:06.115Z,10.9
2023-04-30T00:05:06.407Z,10.8
2023-04-30T00:07:05.963Z,10.8
2023-04-30T00:08:06.060Z,10.8
2023-04-30T00:09:06.056Z,10.8
2023-04-30T00:10:06.300Z,10.8
2023-04-30T00:11:05.734Z,10.8
2023-04-30T00:12:05.884Z,10.8
2023-04-30T00:13:05.711Z,10.8
2023-04-30T00:14:05.914Z,10.8
2023-04-30T00:15:06.414Z,10.8
2023-04-30T00:16:06.243Z,10.8
2023-04-30T00:17:06.364Z,10.8
2023-04-30T00:18:05.876Z,10.8
2023-04-30T00:19:06.127Z,10.8
2023-04-30T00:20:06.480Z,10.8
2023-04-30T00:21:05.640Z,10.8
2023-04-30T00:22:06.356Z,10.8
2023-04-30T00:23:06.556Z,10.8
2023-04-30T00:24:06.029Z,10.8
2023-04-30T00:25:06.167Z,10.8
2023-04-30T00:26:06.424Z,10.8
2023-04-30T00:27:06.578Z,10.8
2023-04-30T00:28:05.768Z,10.8
2023-04-30T00:29:05.958Z,10.7
2023-04-30T00:30:06.356Z,10.7
2023-04-30T00:31:06.162Z,10.7
2023-04-30T00:32:06.087Z,10.8
2023-04-30T00:33:06.306Z,10
2023-04-30T00:34:06.505Z,10.7
2023-04-30T00:35:06.130Z,10.7
2023-04-30T00:36:06.039Z,10.7
2023-04-30T00:37:06.334Z,10.7
2023-04-30T00:38:06.348Z,10.6
2023-04-30T00:39:06.634Z,10.7
2023-04-30T00:40:06.491Z,10.7
2023-04-30T00:41:05.684Z,10.7
2023-04-30T00:42:06.128Z,10.7
2023-04-30T00:43:06.267Z,10.6
2023-04-30T00:44:06.587Z,10.7
2023-04-30T00:45:05.911Z,10.7
2023-04-30T00:46:05.984Z,10.6
2023-04-30T00:47:06.156Z,10.6
2023-04-30T00:48:06.347Z,10.6
2023-04-30T00:49:05.877Z,10.6
2023-04-30T00:50:06.075Z,10.6
2023-04-30T00:51:06.564Z,10
2023-04-30T00:52:05.780Z,10
2023-04-30T00:53:06.069Z,10.6
2023-04-30T00:54:06.359Z,10.6
2023-04-30T00:55:06.329Z,10.6
2023-04-30T00:56:06.416Z,10.6
2023-04-30T00:57:05.868Z,10.6
2023-04-30T00:58:06.178Z,10.6
2023-04-30T00:59:04.949Z,10.6
2023-04-30T01:00:06.114Z,10.6
2023-04-30T01:01:06.335Z,10.6
2023-04-30T01:02:05.414Z,10.6
2023-04-30T01:03:05.835Z,10.6
2023-04-30T01:04:06.140Z,10.6
2023-04-30T01:05:06.304Z,10.6
2023-04-30T01:06:06.533Z,10
2023-04-30T01:07:06.087Z,10.6
2023-04-30T01:08:06.014Z,10.6
2023-04-30T01:09:06.261Z,10.6
2023-04-30T01:10:06.593Z,10.6
2023-04-30T01:11:05.767Z,10.6
2023-04-30T01:12:05.784Z,10.6
2023-04-30T01:13:06.162Z,10.6
2023-04-30T01:14:06.586Z,10.5
2023-04-30T01:15:05.633Z,10.5
2023-04-30T01:16:06.438Z,10.5
2023-04-30T01:17:05.758Z,10.5
2023-04-30T01:18:05.848Z,10.5
2023-04-30T01:19:06.225Z,10.5
2023-04-30T01:20:06.251Z,10
2023-04-30T01:21:06.064Z,10.5
2023-04-30T01:22:06.090Z,10.5
2023-04-30T01:23:06.236Z,10.5
2023-04-30T01:24:05.860Z,10.5
2023-04-30T01:25:06.235Z,10.5
2023-04-30T01:26:06.170Z,10.5
2023-04-30T01:27:06.595Z,10.5
2023-04-30T01:28:05.922Z,10.5
2023-04-30T01:29:06.615Z,10.5
2023-04-30T01:30:05.861Z,10.5
2023-04-30T01:31:05.909Z,10.5
2023-04-30T01:32:06.166Z,10.5
2023-04-30T01:33:06.381Z,10.4
2023-04-30T01:34:06.671Z,10.5
2023-04-30T01:35:06.507Z,10.4
2023-04-30T01:36:06.618Z,10.4
2023-04-30T01:37:05.893Z,10.4
2023-04-30T01:38:05.862Z,10.4
2023-04-30T01:39:05.973Z,10.4
2023-04-30T01:40:05.804Z,10.4
2023-04-30T01:41:05.981Z,10.4
2023-04-30T01:42:06.324Z,10.4
2023-04-30T01:43:05.927Z,10.4
2023-04-30T01:44:06.256Z,10.4
2023-04-30T01:45:06.668Z,10.4
2023-04-30T01:46:05.835Z,10.4
2023-04-30T01:47:06.231Z,10
2023-04-30T01:48:05.071Z,10
2023-04-30T01:49:06.148Z,10.4
2023-04-30T01:50:05.870Z,10.4
2023-04-30T01:51:06.181Z,10.4
2023-04-30T01:52:06.313Z,10.4
2023-04-30T01:53:06.536Z,10
2023-04-30T01:54:05.816Z,10.4
2023-04-30T01:55:06.182Z,10.4
2023-04-30T01:56:05.696Z,10.4
2023-04-30T01:57:05.964Z,10.4
2023-04-30T01:58:06.166Z,10.4
2023-04-30T01:59:06.420Z,10
2023-04-30T02:00:05.855Z,10.4
2023-04-30T02:01:06.238Z,10.4
2023-04-30T02:02:06.503Z,10.4
2023-04-30T02:03:05.730Z,10.4
2023-04-30T02:04:05.876Z,10.4
2023-04-30T02:05:06.193Z,10.4
2023-04-30T02:06:06.550Z,10.4
2023-04-30T02:07:05.869Z,10.4
2023-04-30T02:08:05.699Z,10.4
2023-04-30T02:09:06.294Z,10.4
2023-04-30T02:10:06.466Z,10.4
2023-04-30T02:11:05.993Z,10.4
2023-04-30T02:12:06.333Z,10.4
2023-04-30T02:13:06.354Z,10.3
2023-04-30T02:14:05.721Z,10
2023-04-30T02:15:05.920Z,10.3
2023-04-30T02:16:06.198Z,10.3
2023-04-30T02:17:06.385Z,10.3
2023-04-30T02:18:06.626Z,10.3
2023-04-30T02:19:05.787Z,10.2
2023-04-30T02:20:06.290Z,10.3
2023-04-30T02:21:06.195Z,10.2
2023-04-30T02:22:05.767Z,10.2
2023-04-30T02:23:05.997Z,10.2
2023-04-30T02:24:06.291Z,10.2
2023-04-30T02:25:05.911Z,10.2
2023-04-30T02:26:06.509Z,10.2
2023-04-30T02:27:05.766Z,10.2
2023-04-30T02:28:06.043Z,10.2
2023-04-30T02:29:06.410Z,10.2
2023-04-30T02:30:06.724Z,10.2
2023-04-30T02:31:05.566Z,10.1
2023-04-30T02:32:05.864Z,10.2
2023-04-30T02:33:05.629Z,10.2
2023-04-30T02:34:05.771Z,10.1
2023-04-30T02:35:06.139Z,10.1
2023-04-30T02:36:05.561Z,10.1
2023-04-30T02:37:06.614Z,10.1
2023-04-30T02:38:06.068Z,10.1
2023-04-30T02:39:06.097Z,10.1
2023-04-30T02:40:06.066Z,10
2023-04-30T02:41:06.513Z,10.1
2023-04-30T02:42:06.013Z,10.1
2023-04-30T02:43:06.198Z,10.1
2023-04-30T02:44:06.413Z,10.1
2023-04-30T02:45:05.812Z,10.1
2023-04-30T02:46:05.918Z,10.1
2023-04-30T02:47:06.299Z,10.1
2023-04-30T02:48:05.862Z,10
2023-04-30T02:49:06.063Z,10
2023-04-30T02:50:05.457Z,10
2023-04-30T02:51:05.931Z,10
2023-04-30T02:52:06.353Z,10
2023-04-30T02:53:06.370Z,10
2023-04-30T02:54:05.667Z,10
2023-04-30T02:55:05.665Z,10
2023-04-30T02:56:06.497Z,10
2023-04-30T02:57:05.643Z,10
2023-04-30T02:58:06.042Z,10
2023-04-30T02:59:06.291Z,10
2023-04-30T03:00:06.057Z,10
2023-04-30T03:01:05.930Z,10
2023-04-30T03:02:06.281Z,10
2023-04-30T03:03:06.349Z,10
2023-04-30T03:04:06.581Z,10
2023-04-30T03:05:06.111Z,10
2023-04-30T03:06:06.382Z,10
2023-04-30T03:07:06.642Z,10
2023-04-30T03:08:06.543Z,10
2023-04-30T03:09:06.644Z,10
2023-04-30T03:10:06.092Z,10
2023-04-30T03:11:06.630Z,10
2023-04-30T03:12:05.803Z,10
2023-04-30T03:13:05.986Z,10
2023-04-30T03:14:06.160Z,10
2023-04-30T03:15:06.573Z,10
2023-04-30T03:16:06.077Z,10
2023-04-30T03:17:06.053Z,10
2023-04-30T03:18:06.266Z,10
2023-04-30T03:19:05.901Z,9
2023-04-30T03:20:06.399Z,9
2023-04-30T03:21:06.336Z,10
2023-04-30T03:22:05.780Z,10
2023-04-30T03:23:05.823Z,10
2023-04-30T03:24:06.032Z,10
2023-04-30T03:25:06.427Z,10
2023-04-30T03:26:06.436Z,10
2023-04-30T03:27:06.223Z,10
2023-04-30T03:28:05.894Z,10
2023-04-30T03:29:06.100Z,10
2023-04-30T03:30:06.413Z,10
2023-04-30T03:31:06.376Z,10
2023-04-30T03:32:06.587Z,10
2023-04-30T03:33:06.074Z,10
2023-04-30T03:34:06.056Z,10
2023-04-30T03:35:06.124Z,10
2023-04-30T03:36:06.379Z,10
2023-04-30T03:37:06.555Z,10
2023-04-30T03:38:06.183Z,10
2023-04-30T03:39:05.862Z,10
2023-04-30T03:40:05.998Z,10
2023-04-30T03:41:05.583Z,10
2023-04-30T03:42:05.757Z,10
2023-04-30T03:43:06.490Z,10
2023-04-30T03:44:05.590Z,10
2023-04-30T03:45:05.761Z,10
2023-04-30T03:46:06.234Z,9
2023-04-30T03:47:06.390Z,9
2023-04-30T03:48:06.784Z,10
2023-04-30T03:49:05.934Z,10
2023-04-30T03:50:06.130Z,10
2023-04-30T03:51:06.512Z,10
2023-04-30T03:52:05.832Z,9.9
2023-04-30T03:53:06.208Z,9.9
2023-04-30T03:54:06.439Z,9.9
2023-04-30T03:55:05.699Z,9.9
2023-04-30T03:56:05.791Z,9.9
2023-04-30T03:57:05.985Z,9.9
2023-04-30T03:58:06.419Z,9.9
2023-04-30T03:59:06.675Z,9.9
2023-04-30T04:00:05.785Z,9.9
2023-04-30T04:01:05.898Z,9
2023-04-30T04:02:06.243Z,9.8
2023-04-30T04:03:06.315Z,9.8
2023-04-30T04:04:06.501Z,9.9
2023-04-30T04:05:05.668Z,9.8
2023-04-30T04:06:06.039Z,9.8
2023-04-30T04:07:06.191Z,9.8
2023-04-30T04:08:06.530Z,9.8
2023-04-30T04:09:05.709Z,9.8
2023-04-30T04:10:05.953Z,9.8
2023-04-30T04:11:05.984Z,9.8
2023-04-30T04:12:06.354Z,9.8
2023-04-30T04:13:06.188Z,9.8
2023-04-30T04:14:06.513Z,9
2023-04-30T04:15:06.067Z,9.8
2023-04-30T04:16:06.032Z,9.8
2023-04-30T04:17:06.220Z,9.8
2023-04-30T04:18:05.693Z,9.8
2023-04-30T04:19:06.006Z,9.8
2023-04-30T04:20:06.277Z,9.7
2023-04-30T04:21:05.737Z,9.8
2023-04-30T04:22:06.619Z,9.8
2023-04-30T04:23:06.011Z,9.8
2023-04-30T04:24:06.216Z,9.8
2023-04-30T04:25:05.758Z,9.8
2023-04-30T04:26:05.906Z,9.7
2023-04-30T04:27:06.219Z,9.7
2023-04-30T04:28:06.032Z,9.8
2023-04-30T04:29:05.744Z,9.8
2023-04-30T04:30:05.947Z,9.8
2023-04-30T04:31:06.283Z,9.8
2023-04-30T04:32:06.670Z,9.8
2023-04-30T04:33:05.734Z,9.8
2023-04-30T04:34:06.037Z,9.8
2023-04-30T04:35:06.201Z,9.8
2023-04-30T04:36:06.110Z,9
2023-04-30T04:37:06.542Z,9
2023-04-30T04:38:06.618Z,9.8
2023-04-30T04:39:05.813Z,9.8
2023-04-30T04:40:06.029Z,9.8
2023-04-30T04:41:06.058Z,9.8
2023-04-30T04:42:05.549Z,9.8
2023-04-30T04:43:06.087Z,9.8
2023-04-30T04:44:06.206Z,9
2023-04-30T04:45:06.367Z,9.8
2023-04-30T04:46:05.560Z,9.8
2023-04-30T04:47:06.019Z,9.9
2023-04-30T04:48:05.963Z,9.9
2023-04-30T04:49:06.337Z,9.9
2023-04-30T04:50:06.307Z,10
2023-04-30T04:51:06.241Z,9.9
2023-04-30T04:52:06.537Z,9.9
2023-04-30T04:53:05.384Z,9.9
2023-04-30T04:54:05.668Z,9.9
2023-04-30T04:55:06.502Z,10
2023-04-30T04:56:05.992Z,10
2023-04-30T04:57:05.871Z,10
2023-04-30T04:58:06.399Z,10
2023-04-30T04:59:06.553Z,10
2023-04-30T05:00:06.112Z,10
2023-04-30T05:01:06.135Z,10
2023-04-30T05:02:06.447Z,10
2023-04-30T05:03:06.594Z,10
2023-04-30T05:04:05.980Z,10
2023-04-30T05:05:06.520Z,10
2023-04-30T05:06:05.580Z,10.1
2023-04-30T05:07:06.202Z,10.1
2023-04-30T05:08:06.589Z,10.1
2023-04-30T05:09:05.749Z,10.1
2023-04-30T05:10:06.166Z,10.1
2023-04-30T05:11:06.502Z,10.1
2023-04-30T05:12:05.793Z,10.2
2023-04-30T05:13:05.964Z,10.2
2023-04-30T05:14:06.498Z,10
2023-04-30T05:15:06.690Z,10.3
2023-04-30T05:16:05.803Z,10.3
2023-04-30T05:17:05.930Z,10.3
2023-04-30T05:18:06.276Z,10.4
2023-04-30T05:19:06.693Z,10.4
2023-04-30T05:20:05.748Z,10.4
2023-04-30T05:21:05.662Z,10.4
2023-04-30T05:22:05.851Z,10.4
2023-04-30T05:23:06.313Z,10
2023-04-30T05:24:06.451Z,10.4
2023-04-30T05:25:05.824Z,10.4
2023-04-30T05:26:06.229Z,10.5
2023-04-30T05:27:06.412Z,10.6
2023-04-30T05:28:05.569Z,10.6
2023-04-30T05:29:06.136Z,10.6
2023-04-30T05:30:06.562Z,10.6
2023-04-30T05:31:05.684Z,10.6
2023-04-30T05:32:06.318Z,10.6
2023-04-30T05:33:06.498Z,10.6
2023-04-30T05:34:05.669Z,10.7
2023-04-30T05:35:06.520Z,10.7
2023-04-30T05:36:05.998Z,10
2023-04-30T05:37:06.283Z,10
2023-04-30T05:38:05.883Z,10
2023-04-30T05:39:06.278Z,10.8
2023-04-30T05:40:06.649Z,10.8
2023-04-30T05:41:05.634Z,10.8
2023-04-30T05:42:05.771Z,10.8
2023-04-30T05:43:05.902Z,10.8
2023-04-30T05:44:06.085Z,10.8
2023-04-30T05:45:06.383Z,10.8
2023-04-30T05:46:06.812Z,10.8
2023-04-30T05:47:05.842Z,10.8
2023-04-30T05:48:06.504Z,10.8
2023-04-30T05:49:06.181Z,10.9
2023-04-30T05:50:06.623Z,10.9
2023-04-30T05:51:05.855Z,11
2023-04-30T05:52:06.136Z,11
2023-04-30T05:53:06.556Z,11
2023-04-30T05:54:05.755Z,11.1
2023-04-30T05:55:05.994Z,11
2023-04-30T05:56:06.185Z,11.1
2023-04-30T05:57:06.370Z,11.1
2023-04-30T05:58:06.357Z,11.2
2023-04-30T05:59:05.749Z,11.2
2023-04-30T06:00:05.912Z,11.2
2023-04-30T06:01:06.192Z,11.2
2023-04-30T06:02:05.652Z,11.3
2023-04-30T06:03:06.234Z,11.3
2023-04-30T06:04:06.278Z,11.4
2023-04-30T06:05:05.240Z,11.4
2023-04-30T06:06:06.167Z,11.4
2023-04-30T06:07:06.289Z,11.4
2023-04-30T06:08:06.349Z,11.4
2023-04-30T06:09:05.834Z,11.5
2023-04-30T06:10:06.007Z,11.5
2023-04-30T06:11:05.742Z,11.6
2023-04-30T06:12:05.842Z,11.6
2023-04-30T06:13:05.800Z,11
2023-04-30T06:14:06.256Z,11
2023-04-30T06:15:06.217Z,11.8
2023-04-30T06:16:06.598Z,11.7
2023-04-30T06:17:06.370Z,11.8
2023-04-30T06:18:05.775Z,11.8
2023-04-30T06:19:06.341Z,11.9
2023-04-30T06:20:06.171Z,12
2023-04-30T06:21:06.120Z,12.1
2023-04-30T06:22:06.232Z,12.1
2023-04-30T06:23:06.719Z,12.2
2023-04-30T06:24:05.708Z,12.3
2023-04-30T06:25:06.043Z,12.3
2023-04-30T06:26:06.238Z,12.3
2023-04-30T06:27:06.490Z,12.3
2023-04-30T06:28:06.657Z,12.4
2023-04-30T06:29:05.907Z,12.4
2023-04-30T06:30:06.499Z,12.5
2023-04-30T06:31:05.761Z,12.5
2023-04-30T06:32:08.214Z,12.7
2023-04-30T06:33:06.563Z,12.8
2023-04-30T06:34:06.082Z,12.9
2023-04-30T06:35:06.480Z,13
2023-04-30T06:36:05.782Z,13
2023-04-30T06:37:05.656Z,13.4
2023-04-30T06:38:06.426Z,13.6
2023-04-30T06:39:06.481Z,13.8
2023-04-30T06:40:05.769Z,13.8
2023-04-30T06:41:05.850Z,14
2023-04-30T06:42:06.358Z,14.1
2023-04-30T06:43:06.722Z,14.5
2023-04-30T06:44:05.878Z,14.5
2023-04-30T06:45:06.241Z,14.6
2023-04-30T06:46:05.837Z,14.6
2023-04-30T06:47:06.094Z,14.5
2023-04-30T06:48:06.408Z,14.4
2023-04-30T06:49:06.656Z,14.4
2023-04-30T06:50:05.965Z,14.4
2023-04-30T06:51:05.839Z,14.4
2023-04-30T06:52:05.680Z,14.4
2023-04-30T06:53:05.858Z,14.4
2023-04-30T06:54:06.301Z,14.4
2023-04-30T06:55:05.721Z,14.5
2023-04-30T06:56:06.134Z,14.6
2023-04-30T06:57:06.386Z,14.6
2023-04-30T06:58:05.620Z,14.8
2023-04-30T06:59:05.598Z,14.8
2023-04-30T07:00:06.264Z,15.2
2023-04-30T07:01:06.501Z,15.6
2023-04-30T07:02:05.832Z,15.6
2023-04-30T07:03:06.246Z,15.9
2023-04-30T07:04:05.841Z,15.9
2023-04-30T07:05:05.979Z,16.2
2023-04-30T07:06:06.015Z,16.8
2023-04-30T07:07:06.075Z,17
2023-04-30T07:08:06.352Z,17
2023-04-30T07:09:06.457Z,17
2023-04-30T07:10:05.940Z,17
2023-04-30T07:11:05.994Z,16.9
2023-04-30T07:12:06.255Z,16.8
2023-04-30T07:13:06.420Z,16.7
2023-04-30T07:14:05.888Z,16.6
2023-04-30T07:15:06.248Z,16.6
2023-04-30T07:16:06.031Z,16.6
2023-04-30T07:17:06.273Z,16.6
2023-04-30T07:18:06.576Z,16.7
2023-04-30T07:19:05.678Z,16.7
2023-04-30T07:20:06.279Z,16.8
2023-04-30T07:21:06.513Z,16.7
2023-04-30T07:22:05.738Z,16.7
2023-04-30T07:23:06.033Z,16.6
2023-04-30T07:24:05.731Z,16.6
2023-04-30T07:25:06.104Z,16.6
2023-04-30T07:26:05.660Z,16.6
2023-04-30T07:27:05.966Z,16.6
2023-04-30T07:28:06.074Z,16.6
2023-04-30T07:29:06.460Z,16.5
2023-04-30T07:30:05.849Z,16.6
2023-04-30T07:31:06.473Z,16.5
2023-04-30T07:32:05.579Z,16.5
2023-04-30T07:33:05.972Z,16.4
2023-04-30T07:34:06.195Z,16.4
2023-04-30T07:35:06.656Z,16.5
2023-04-30T07:36:05.507Z,16.5
2023-04-30T07:37:05.893Z,16.5
2023-04-30T07:38:06.125Z,16.6
2023-04-30T07:39:06.470Z,16.6
2023-04-30T07:40:06.559Z,16.6
2023-04-30T07:41:06.184Z,15
2023-04-30T07:42:06.223Z,16.7
2023-04-30T07:43:05.311Z,16.7
2023-04-30T07:44:06.356Z,16.7
2023-04-30T07:45:05.660Z,16.7
2023-04-30T07:46:05.992Z,16.6
2023-04-30T07:47:05.746Z,16.6
2023-04-30T07:48:06.367Z,16.6
2023-04-30T07:49:05.785Z,16.6
2023-04-30T07:50:05.990Z,16.8
2023-04-30T07:51:06.016Z,16.9
2023-04-30T07:52:06.193Z,16.9
2023-04-30T07:53:06.429Z,16.8
2023-04-30T07:54:05.885Z,15
2023-04-30T07:55:06.223Z,15
2023-04-30T07:56:06.270Z,16.8
2023-04-30T07:57:05.912Z,16.8
2023-04-30T07:58:06.090Z,16.8
2023-04-30T07:59:05.780Z,15
2023-04-30T08:00:05.935Z,16.7
2023-04-30T08:01:06.444Z,16.7
2023-04-30T08:02:05.844Z,16.6
2023-04-30T08:03:05.994Z,16.5
2023-04-30T08:04:06.550Z,16.5
2023-04-30T08:05:05.921Z,16.5
2023-04-30T08:06:06.016Z,16.5
2023-04-30T08:07:06.194Z,16.5
2023-04-30T08:08:06.349Z,16.5
2023-04-30T08:09:05.549Z,16.6
2023-04-30T08:10:05.727Z,16.5
2023-04-30T08:11:06.088Z,16.5
2023-04-30T08:12:06.233Z,16.5
2023-04-30T08:13:06.530Z,16.5
2023-04-30T08:14:05.776Z,16.6
2023-04-30T08:15:06.349Z,16.6
2023-04-30T08:16:05.872Z,16.6
2023-04-30T08:17:05.817Z,16.4
2023-04-30T08:18:05.857Z,15
2023-04-30T08:19:06.204Z,16.1
2023-04-30T08:20:06.539Z,16.1
2023-04-30T08:21:05.830Z,16.1
2023-04-30T08:22:06.047Z,16.1
2023-04-30T08:23:06.339Z,16.3
2023-04-30T08:24:06.590Z,16.3
2023-04-30T08:25:05.588Z,16.4
2023-04-30T08:26:05.963Z,16.5
2023-04-30T08:27:06.373Z,16.5
2023-04-30T08:28:06.595Z,16.5
2023-04-30T08:29:05.536Z,16.5
2023-04-30T08:30:06.120Z,16.4
2023-04-30T08:31:06.097Z,16.4
2023-04-30T08:32:06.496Z,16.1
2023-04-30T08:33:05.508Z,16
2023-04-30T08:34:06.033Z,15.8
2023-04-30T08:35:06.217Z,15.7
2023-04-30T08:36:06.365Z,15.6
2023-04-30T08:37:05.963Z,15.5
2023-04-30T08:38:06.206Z,15
2023-04-30T08:39:06.452Z,15.4
2023-04-30T08:40:05.832Z,15.3
2023-04-30T08:41:05.885Z,15.3
2023-04-30T08:42:06.122Z,15.2
2023-04-30T08:43:06.369Z,15.2
2023-04-30T08:44:07.726Z,15.2
2023-04-30T08:45:06.499Z,15.2
2023-04-30T08:46:06.156Z,15.2
2023-04-30T08:47:05.696Z,15.2
2023-04-30T08:48:06.115Z,15.2
2023-04-30T08:49:06.102Z,15.2
2023-04-30T08:50:05.960Z,15.2
2023-04-30T08:51:05.778Z,15.3
2023-04-30T08:52:05.748Z,15.3
2023-04-30T08:53:06.196Z,15.3
2023-04-30T08:54:06.347Z,15.2
2023-04-30T08:55:05.813Z,15.2
2023-04-30T08:56:06.380Z,15.2
2023-04-30T08:57:06.701Z,15.2
2023-04-30T08:58:05.737Z,15.2
2023-04-30T08:59:06.154Z,15.3
2023-04-30T09:00:06.353Z,15.3
2023-04-30T09:01:05.816Z,15.3
2023-04-30T09:02:06.111Z,15.3
2023-04-30T09:03:06.229Z,15.3
2023-04-30T09:04:06.415Z,15.4
2023-04-30T09:05:05.727Z,15
2023-04-30T09:06:06.024Z,15.4
2023-04-30T09:07:07.480Z,15.4
2023-04-30T09:08:06.414Z,15
2023-04-30T09:09:06.623Z,15.4
2023-04-30T09:10:05.886Z,15.4
2023-04-30T09:11:06.169Z,15.4
2023-04-30T09:12:06.527Z,15.4
2023-04-30T09:13:06.224Z,15.4
2023-04-30T09:14:05.733Z,15.4
2023-04-30T09:15:05.769Z,15.4
2023-04-30T09:16:06.489Z,15.4
2023-04-30T09:17:06.672Z,15.3
2023-04-30T09:18:05.737Z,15.3
2023-04-30T09:19:06.020Z,15.3
2023-04-30T09:20:06.345Z,15.3
2023-04-30T09:21:06.448Z,15.3
2023-04-30T09:22:05.695Z,15.3
2023-04-30T09:23:05.944Z,15.3
2023-04-30T09:24:06.195Z,15.4
2023-04-30T09:25:06.194Z,15.3
2023-04-30T09:26:05.613Z,15.3
2023-04-30T09:27:05.922Z,15.4
2023-04-30T09:28:05.966Z,15.5
2023-04-30T09:29:06.252Z,15.5
2023-04-30T09:30:06.282Z,15.4
2023-04-30T09:31:06.530Z,15.4
2023-04-30T09:32:05.626Z,15.5
2023-04-30T09:33:06.097Z,15.5
2023-04-30T09:34:06.091Z,15.5
2023-04-30T09:35:06.596Z,15.5
2023-04-30T09:36:06.231Z,15.6
2023-04-30T09:37:06.237Z,15.6
2023-04-30T09:38:06.660Z,15.6
2023-04-30T09:39:06.386Z,15.6
2023-04-30T09:40:06.156Z,15.6
2023-04-30T09:41:06.225Z,15.5
2023-04-30T09:42:05.595Z,15.5
2023-04-30T09:43:05.995Z,15.5
2023-04-30T09:44:06.008Z,15.5
2023-04-30T09:45:06.448Z,15.5
2023-04-30T09:46:05.900Z,15.5
2023-04-30T09:47:06.042Z,15.5
2023-04-30T09:48:16.189Z,15.5
2023-04-30T09:49:06.501Z,15.5
2023-04-30T09:50:05.914Z,15.6
2023-04-30T09:51:05.943Z,15.5
2023-04-30T09:52:06.223Z,15.5
2023-04-30T09:53:06.194Z,15.5
2023-04-30T09:54:05.831Z,15.5
2023-04-30T09:55:06.135Z,15.4
2023-04-30T09:56:06.546Z,15.4
2023-04-30T09:57:05.670Z,15.4
2023-04-30T09:58:05.776Z,15.3
2023-04-30T09:59:06.074Z,15.3
2023-04-30T10:00:06.399Z,15
2023-04-30T10:01:05.925Z,15.4
2023-04-30T10:02:06.162Z,15.4
2023-04-30T10:03:06.101Z,15.4
2023-04-30T10:04:05.787Z,15
2023-04-30T10:05:05.855Z,15.3
2023-04-30T10:06:06.163Z,15.4
2023-04-30T10:07:06.493Z,15.4
2023-04-30T10:08:05.686Z,15
2023-04-30T10:09:05.809Z,15.4
2023-04-30T10:10:06.020Z,15.4
2023-04-30T10:11:06.162Z,15.5
2023-04-30T10:12:06.386Z,15.4
2023-04-30T10:13:07.683Z,15.5
2023-04-30T10:14:05.578Z,15.5
2023-04-30T10:15:05.696Z,15.4
2023-04-30T10:16:05.979Z,15.4
2023-04-30T10:17:06.257Z,15.5
2023-04-30T10:18:05.841Z,15.5
2023-04-30T10:19:05.964Z,15.6
2023-04-30T10:20:06.175Z,15.6
2023-04-30T10:21:06.061Z,15.6
2023-04-30T10:22:06.204Z,15.6
2023-04-30T10:23:06.256Z,15.6
2023-04-30T10:24:06.651Z,15.6
2023-04-30T10:25:05.901Z,15.6
2023-04-30T10:26:06.602Z,16
2023-04-30T10:27:05.590Z,16
2023-04-30T10:28:05.932Z,16
2023-04-30T10:29:06.221Z,15.7
2023-04-30T10:30:06.554Z,15.6
2023-04-30T10:31:05.930Z,15.6
2023-04-30T10:32:06.307Z,15.8
2023-04-30T10:33:06.249Z,15.8
2023-04-30T10:34:06.226Z,15.9
2023-04-30T10:35:06.550Z,15.9
2023-04-30T10:36:05.860Z,16
2023-04-30T10:37:05.887Z,16
2023-04-30T10:38:06.023Z,16
2023-04-30T10:39:06.478Z,16
2023-04-30T10:40:05.706Z,16
2023-04-30T10:41:05.702Z,16
2023-04-30T10:42:05.700Z,16
2023-04-30T10:43:06.123Z,16
2023-04-30T10:44:06.484Z,16
2023-04-30T10:45:06.124Z,16
2023-04-30T10:46:05.386Z,16
2023-04-30T10:47:06.592Z,16
2023-04-30T10:48:06.448Z,16
2023-04-30T10:49:06.537Z,16
2023-04-30T10:50:05.780Z,16
2023-04-30T10:51:06.151Z,16
2023-04-30T10:52:06.442Z,16
2023-04-30T10:53:05.770Z,16
2023-04-30T10:54:05.971Z,16
2023-04-30T10:55:06.289Z,16.1
2023-04-30T10:56:06.927Z,16.1
2023-04-30T10:57:05.898Z,16.2
2023-04-30T10:58:06.137Z,16.2
2023-04-30T10:59:06.419Z,16.2
2023-04-30T11:00:06.661Z,16.2
2023-04-30T11:01:06.347Z,16.4
2023-04-30T11:02:05.624Z,16.4
2023-04-30T11:03:05.812Z,16.4
2023-04-30T11:04:06.191Z,17
2023-04-30T11:05:06.380Z,16.5
2023-04-30T11:06:06.181Z,16.6
2023-04-30T11:07:06.431Z,16.6
2023-04-30T11:08:05.482Z,16.6
2023-04-30T11:09:05.897Z,16.6
2023-04-30T11:10:06.216Z,16.6
2023-04-30T11:11:06.032Z,17
2023-04-30T11:12:06.355Z,16.6
2023-04-30T11:13:06.564Z,16.7
2023-04-30T11:14:05.823Z,16.7
2023-04-30T11:15:05.684Z,16.8
2023-04-30T11:16:05.618Z,16.8
2023-04-30T11:17:06.171Z,16.8
2023-04-30T11:18:06.181Z,16.8
2023-04-30T11:19:04.687Z,16.9
2023-04-30T11:20:06.711Z,17
2023-04-30T11:21:05.993Z,17
2023-04-30T11:22:06.393Z,17
2023-04-30T11:23:06.546Z,17.1
2023-04-30T11:24:05.940Z,17
2023-04-30T11:25:06.157Z,17.1
2023-04-30T11:26:05.957Z,17
2023-04-30T11:27:06.226Z,17
2023-04-30T11:28:06.235Z,17
2023-04-30T11:29:05.776Z,17.1
2023-04-30T11:30:06.040Z,17.2
2023-04-30T11:31:06.411Z,17.2
2023-04-30T11:32:05.331Z,17.2
2023-04-30T11:33:06.562Z,17.3
2023-04-30T11:34:05.830Z,17.3
2023-04-30T11:35:05.341Z,17.3
2023-04-30T11:36:06.625Z,17.2
2023-04-30T11:37:05.778Z,17.2
2023-04-30T11:38:06.142Z,17.2
2023-04-30T11:39:06.349Z,17.2
2023-04-30T11:40:06.434Z,17.2
2023-04-30T11:41:06.462Z,17.2
2023-04-30T11:42:05.562Z,17.2
2023-04-30T11:43:05.945Z,17.1
2023-04-30T11:44:06.361Z,17.1
2023-04-30T11:45:06.603Z,17.2
2023-04-30T11:46:06.052Z,17.2
2023-04-30T11:47:06.696Z,17.2
2023-04-30T11:48:05.823Z,17.4
2023-04-30T11:49:05.863Z,17.6
2023-04-30T11:50:06.299Z,17.7
2023-04-30T11:51:06.472Z,17.8
2023-04-30T11:52:05.626Z,17.9
2023-04-30T11:53:06.247Z,17.9
2023-04-30T11:54:06.211Z,17.9
2023-04-30T11:55:05.715Z,17.9
2023-04-30T11:56:06.307Z,17.8
2023-04-30T11:57:06.255Z,17.8
2023-04-30T11:58:05.773Z,17.6
2023-04-30T11:59:06.038Z,17.6
2023-04-30T12:00:06.309Z,17.4
2023-04-30T12:01:06.180Z,17.4
2023-04-30T12:02:06.272Z,17.3
2023-04-30T12:03:06.322Z,17.2
2023-04-30T12:04:06.226Z,17.2
2023-04-30T12:05:05.985Z,17.2
2023-04-30T12:07:06.067Z,17.2
2023-04-30T12:08:06.210Z,17.3
2023-04-30T12:09:06.490Z,17.3
2023-04-30T12:10:05.775Z,17.3
2023-04-30T12:11:06.006Z,17.3
2023-04-30T12:12:06.011Z,17.4
2023-04-30T12:13:06.258Z,18
2023-04-30T12:14:06.675Z,17.7
2023-04-30T12:15:05.825Z,17.8
2023-04-30T12:16:06.002Z,17.8
2023-04-30T12:17:06.160Z,17.8
2023-04-30T12:18:06.488Z,17.8
2023-04-30T12:19:05.846Z,17.9
2023-04-30T12:20:06.062Z,17.8
2023-04-30T12:21:06.509Z,17.8
2023-04-30T12:22:06.501Z,17.8
2023-04-30T12:23:05.578Z,17.7
2023-04-30T12:24:06.201Z,17.7
2023-04-30T12:25:06.480Z,17.6
2023-04-30T12:26:06.402Z,17.6
2023-04-30T12:27:06.548Z,17.6
2023-04-30T12:28:05.727Z,18
2023-04-30T12:29:06.113Z,17.5
2023-04-30T12:30:06.389Z,17.5
2023-04-30T12:31:05.906Z,17.5
2023-04-30T12:32:05.757Z,17.5
2023-04-30T12:33:05.940Z,17.5
2023-04-30T12:34:06.103Z,17.5
2023-04-30T12:35:06.176Z,17.5
2023-04-30T12:36:05.681Z,17.5
2023-04-30T12:37:05.947Z,17.5
2023-04-30T12:38:06.340Z,17.4
2023-04-30T12:39:06.459Z,17.5
2023-04-30T12:40:05.864Z,17.4
2023-04-30T12:41:06.254Z,17.4
2023-04-30T12:42:06.587Z,17.4
2023-04-30T12:43:05.850Z,17.5
2023-04-30T12:44:05.974Z,17.4
2023-04-30T12:45:06.374Z,17.4
2023-04-30T12:46:05.925Z,17.4
2023-04-30T12:47:06.086Z,17.4
2023-04-30T12:48:06.414Z,17.5
2023-04-30T12:49:05.726Z,17.6
2023-04-30T12:50:05.864Z,17.6
2023-04-30T12:51:05.912Z,17.5
2023-04-30T12:52:05.912Z,17.5
2023-04-30T12:53:06.399Z,17.6
2023-04-30T12:54:06.412Z,17.7
2023-04-30T12:55:06.090Z,17.6
2023-04-30T12:56:06.303Z,17.6
2023-04-30T12:57:05.630Z,17.7
2023-04-30T12:58:05.943Z,17.7
2023-04-30T12:59:05.983Z,17.7
2023-04-30T13:00:06.069Z,17.8
2023-04-30T13:01:06.602Z,17.8
2023-04-30T13:02:05.821Z,17.9
2023-04-30T13:03:06.139Z,17.9
2023-04-30T13:04:06.404Z,17.9
2023-04-30T13:05:06.686Z,17.9
2023-04-30T13:07:06.449Z,17.8
2023-04-30T13:08:04.825Z,17.9
2023-04-30T13:09:06.287Z,17.8
2023-04-30T13:10:06.051Z,17.8
2023-04-30T13:11:05.852Z,17.8
2023-04-30T13:12:06.355Z,17.7
2023-04-30T13:13:06.068Z,17.7
2023-04-30T13:14:05.885Z,17.7
2023-04-30T13:15:06.354Z,17.8
2023-04-30T13:16:05.831Z,17.9
2023-04-30T13:17:06.021Z,18
2023-04-30T13:18:06.372Z,19
2023-04-30T13:19:05.921Z,18.1
2023-04-30T13:20:06.031Z,18.1
2023-04-30T13:21:05.805Z,19
2023-04-30T13:22:05.278Z,18
2023-04-30T13:23:06.426Z,18
2023-04-30T13:24:05.874Z,18
2023-04-30T13:25:06.302Z,18.1
2023-04-30T13:26:06.177Z,18
2023-04-30T13:27:06.311Z,18.1
2023-04-30T13:28:05.807Z,18.1
2023-04-30T13:29:05.772Z,18.1
2023-04-30T13:30:06.139Z,18
2023-04-30T13:31:05.826Z,18
2023-04-30T13:32:06.122Z,18
2023-04-30T13:33:06.296Z,18
2023-04-30T13:34:06.421Z,18
2023-04-30T13:35:05.961Z,18